Time;durP1;ratioP1;P1;durP2;ratioP2;P2;SDS_P1;SDS_P2;PMS_P1;PMS_P2;Temp;Humidity;BMP_temperature;BMP_pressure;BME280_temperature;BME280_humidity;BME280_pressure;Samples;Min_cycle;Max_cycle;Signal;HPM_P1;HPM_P2
2022/02/28 00:00:10;;;;;;;7.32;6.63;;;1.90;90.40;;;;;;5126672;27;20222;-80
2022/02/28 00:02:37;;;;;;;8.75;7.93;;;1.90;90.50;;;;;;5126055;27;20199;-79
2022/02/28 00:05:04;;;;;;;10.80;8.48;;;1.90;90.60;;;;;;5132323;27;20211;-80
2022/02/28 00:07:32;;;;;;;12.65;9.13;;;1.90;90.70;;;;;;5137190;27;20200;-80
2022/02/28 00:09:59;;;;;;;8.82;6.75;;;1.80;90.80;;;;;;5138202;27;20223;-80
2022/02/28 00:12:26;;;;;;;8.52;7.63;;;1.70;90.80;;;;;;5120283;27;20681;-80
2022/02/28 00:14:53;;;;;;;8.52;7.72;;;1.70;91.00;;;;;;5117209;28;20205;-79
2022/02/28 00:17:20;;;;;;;7.25;6.65;;;1.70;91.20;;;;;;5117480;28;20204;-80
2022/02/28 00:19:46;;;;;;;8.75;7.95;;;1.60;91.30;;;;;;5117060;28;20232;-80
2022/02/28 00:22:13;;;;;;;11.50;7.75;;;1.60;91.30;;;;;;5127462;27;20191;-80
2022/02/28 00:24:41;;;;;;;8.85;7.15;;;1.60;91.50;;;;;;5137904;27;20204;-80
2022/02/28 00:27:08;;;;;;;11.00;7.43;;;1.60;91.60;;;;;;5130687;27;20196;-80
2022/02/28 00:29:35;;;;;;;8.65;7.85;;;1.60;91.70;;;;;;5117606;27;20229;-80
2022/02/28 00:32:01;;;;;;;10.10;7.72;;;1.60;91.70;;;;;;5137579;27;20336;-80
2022/02/28 00:34:28;;;;;;;7.35;6.60;;;1.60;91.80;;;;;;5137151;27;20210;-80
2022/02/28 00:36:56;;;;;;;8.27;7.32;;;1.50;91.80;;;;;;5138080;27;20199;-80
2022/02/28 00:39:23;;;;;;;7.70;6.70;;;1.30;92.10;;;;;;5138255;27;20219;-80
2022/02/28 00:41:51;;;;;;;8.93;8.00;;;1.30;92.30;;;;;;5118670;28;20211;-79
2022/02/28 00:44:17;;;;;;;8.25;7.45;;;1.30;92.50;;;;;;5116816;28;20208;-80
2022/02/28 00:46:44;;;;;;;7.78;6.97;;;1.20;92.50;;;;;;5133908;27;20203;-80
2022/02/28 00:49:11;;;;;;;9.15;8.25;;;1.20;92.50;;;;;;5137884;27;20224;-80
2022/02/28 00:51:38;;;;;;;13.52;8.50;;;1.20;92.70;;;;;;5120622;27;20234;-79
2022/02/28 00:54:04;;;;;;;11.05;7.97;;;1.20;92.80;;;;;;5117458;28;20204;-80
2022/02/28 00:56:31;;;;;;;7.88;6.65;;;1.20;92.90;;;;;;5131579;28;20201;-80
2022/02/28 00:58:59;;;;;;;8.05;7.25;;;1.10;93.00;;;;;;5137212;28;20722;-79
2022/02/28 01:01:26;;;;;;;8.27;7.35;;;1.10;93.10;;;;;;5123084;28;20199;-79
2022/02/28 01:03:53;;;;;;;9.55;7.45;;;1.10;93.20;;;;;;5118883;28;20679;-80
2022/02/28 01:06:19;;;;;;;10.60;7.43;;;0.90;93.60;;;;;;5137672;28;20220;-80
2022/02/28 01:08:46;;;;;;;8.68;7.57;;;0.90;93.70;;;;;;5137816;28;20220;-78
2022/02/28 01:11:13;;;;;;;10.55;9.55;;;1.00;93.80;;;;;;5135860;28;20211;-80
2022/02/28 01:13:40;;;;;;;8.88;7.60;;;0.90;93.90;;;;;;5137501;28;20207;-80
2022/02/28 01:16:08;;;;;;;8.85;7.20;;;0.90;94.20;;;;;;5118160;28;20216;-80
2022/02/28 01:18:34;;;;;;;9.13;6.78;;;1.00;94.40;;;;;;5116811;28;20675;-80
2022/02/28 01:21:02;;;;;;;7.90;7.10;;;0.90;94.50;;;;;;5134054;28;20203;-80
2022/02/28 01:23:28;;;;;;;13.57;8.02;;;0.90;94.80;;;;;;5137380;28;20218;-80
2022/02/28 01:25:55;;;;;;;10.77;7.60;;;0.60;94.90;;;;;;5120725;28;20214;-80
2022/02/28 01:28:22;;;;;;;8.85;7.35;;;0.60;95.40;;;;;;5124107;27;20699;-80
2022/02/28 01:30:49;;;;;;;10.68;8.18;;;0.60;95.70;;;;;;5140273;27;20232;-80
2022/02/28 01:33:17;;;;;;;11.65;8.65;;;0.30;96.10;;;;;;5140458;27;20708;-80
2022/02/28 01:35:44;;;;;;;10.20;9.30;;;0.20;96.60;;;;;;5140919;27;20206;-80
2022/02/28 01:38:11;;;;;;;9.90;7.80;;;0.20;97.30;;;;;;5139764;27;20203;-80
2022/02/28 01:40:37;;;;;;;12.15;8.23;;;0.20;97.40;;;;;;5119982;28;20203;-79
2022/02/28 01:43:05;;;;;;;8.65;7.43;;;0.20;97.40;;;;;;5121175;27;20214;-80
2022/02/28 01:45:32;;;;;;;7.93;7.07;;;0.30;97.50;;;;;;5141491;27;20229;-80
2022/02/28 01:47:59;;;;;;;10.30;7.65;;;0.20;97.40;;;;;;5141590;27;20207;-80
2022/02/28 01:50:27;;;;;;;8.45;7.53;;;0.30;97.50;;;;;;5120929;27;20223;-80
2022/02/28 01:52:55;;;;;;;10.57;7.90;;;0.30;97.50;;;;;;5123213;27;20202;-80
2022/02/28 01:55:24;;;;;;;12.05;8.30;;;0.30;97.60;;;;;;5141046;27;20210;-80
2022/02/28 01:57:51;;;;;;;9.20;8.30;;;0.40;97.60;;;;;;5134289;27;20218;-80
2022/02/28 02:00:20;;;;;;;10.10;7.05;;;0.40;97.60;;;;;;5119955;28;20220;-80
2022/02/28 02:02:47;;;;;;;10.68;7.43;;;0.40;97.60;;;;;;5122964;27;20385;-80
2022/02/28 02:05:14;;;;;;;8.77;7.90;;;0.40;97.60;;;;;;5127970;27;20203;-80
2022/02/28 02:07:42;;;;;;;14.25;6.50;;;0.40;97.70;;;;;;5132579;27;20202;-80
2022/02/28 02:10:12;;;;;;;10.80;7.60;;;0.40;97.70;;;;;;5128395;27;20423;-80
2022/02/28 02:12:39;;;;;;;12.18;7.53;;;0.40;97.70;;;;;;5129329;27;20220;-79
2022/02/28 02:15:08;;;;;;;9.75;7.13;;;0.30;97.90;;;;;;5130516;27;20196;-80
2022/02/28 02:17:36;;;;;;;9.85;7.68;;;0.30;98.10;;;;;;5127840;27;20233;-80
2022/02/28 02:20:06;;;;;;;11.45;7.60;;;0.20;98.20;;;;;;5130329;27;20222;-80
2022/02/28 02:22:33;;;;;;;11.15;8.80;;;0.10;98.50;;;;;;5130153;27;20197;-79
2022/02/28 02:24:59;;;;;;;8.65;7.70;;;0.00;99.00;;;;;;5130958;27;20203;-79
2022/02/28 02:27:26;;;;;;;13.32;8.23;;;0.00;99.10;;;;;;5129520;27;20199;-79
2022/02/28 02:29:53;;;;;;;15.18;7.90;;;-0.10;99.30;;;;;;5130907;27;20220;-81
2022/02/28 02:32:20;;;;;;;10.68;7.93;;;-0.20;99.70;;;;;;5126889;27;20218;-81
2022/02/28 02:34:47;;;;;;;11.02;8.82;;;-0.20;99.80;;;;;;5131008;27;20206;-80
2022/02/28 02:37:15;;;;;;;10.80;7.70;;;-0.40;99.90;;;;;;5127838;27;20202;-80
2022/02/28 02:39:43;;;;;;;13.18;8.50;;;-0.40;99.90;;;;;;5118473;28;20212;-80
2022/02/28 02:42:11;;;;;;;9.10;7.95;;;-0.50;99.90;;;;;;5118868;28;20199;-80
2022/02/28 02:44:38;;;;;;;12.57;8.13;;;-0.50;99.90;;;;;;5118554;28;20196;-81
2022/02/28 02:47:05;;;;;;;8.63;7.28;;;-0.50;99.90;;;;;;5119412;28;20210;-80
2022/02/28 02:49:32;;;;;;;11.75;8.05;;;-0.40;99.90;;;;;;5118533;28;20223;-79
2022/02/28 02:51:59;;;;;;;12.50;7.35;;;-0.50;99.90;;;;;;5118879;28;20220;-79
2022/02/28 02:54:27;;;;;;;9.98;8.25;;;-0.40;99.90;;;;;;5119907;28;20699;-79
2022/02/28 02:56:54;;;;;;;11.40;7.50;;;-0.40;99.90;;;;;;5119749;28;20196;-79
2022/02/28 02:59:20;;;;;;;9.60;7.38;;;-0.40;99.90;;;;;;5119186;28;20665;-79
2022/02/28 03:01:47;;;;;;;8.43;7.43;;;-0.30;99.90;;;;;;5119019;28;20192;-78
2022/02/28 03:04:14;;;;;;;13.32;7.32;;;-0.30;99.90;;;;;;5119263;28;20698;-79
2022/02/28 03:06:40;;;;;;;8.23;7.07;;;-0.20;99.90;;;;;;5119840;28;20196;-79
2022/02/28 03:09:12;;;;;;;8.60;7.82;;;-0.20;99.90;;;;;;5119029;28;20224;-79
2022/02/28 03:11:41;;;;;;;9.25;6.07;;;-0.20;99.90;;;;;;5118685;28;20583;-79
2022/02/28 03:14:08;;;;;;;11.70;8.27;;;-0.10;99.90;;;;;;5119438;28;20204;-79
2022/02/28 03:16:34;;;;;;;8.75;7.88;;;-0.10;99.90;;;;;;5119829;28;20207;-79
2022/02/28 03:19:01;;;;;;;9.32;7.45;;;-0.20;99.90;;;;;;5122465;28;20235;-78
2022/02/28 03:21:28;;;;;;;12.98;8.20;;;-0.40;99.90;;;;;;5133038;28;20211;-78
2022/02/28 03:23:55;;;;;;;8.63;7.45;;;-0.40;99.90;;;;;;5137352;28;20251;-79
2022/02/28 03:26:22;;;;;;;11.50;9.93;;;-0.40;99.90;;;;;;5129585;28;20203;-79
2022/02/28 03:28:50;;;;;;;11.43;8.20;;;-0.40;99.90;;;;;;5124352;28;20234;-79
2022/02/28 03:31:17;;;;;;;9.13;6.97;;;-0.40;99.90;;;;;;5128238;28;20225;-78
2022/02/28 03:33:44;;;;;;;8.43;7.30;;;-0.40;99.90;;;;;;5137708;28;20208;-77
2022/02/28 03:36:10;;;;;;;9.32;8.32;;;-0.40;99.90;;;;;;5135892;28;20195;-79
2022/02/28 03:38:37;;;;;;;8.30;7.50;;;-0.40;99.90;;;;;;5120880;28;20700;-79
2022/02/28 03:41:04;;;;;;;10.35;7.38;;;-0.50;99.90;;;;;;5119585;28;20206;-78
2022/02/28 03:43:31;;;;;;;11.02;8.18;;;-0.70;99.90;;;;;;5127303;28;20195;-79
2022/02/28 03:45:59;;;;;;;8.43;7.60;;;-0.80;99.90;;;;;;5137555;28;20199;-78
2022/02/28 03:48:25;;;;;;;8.50;7.60;;;-0.90;99.90;;;;;;5137038;28;20286;-79
2022/02/28 03:50:52;;;;;;;10.02;7.35;;;-0.90;99.90;;;;;;5119909;28;20248;-79
2022/02/28 03:53:19;;;;;;;11.80;8.63;;;-0.90;99.90;;;;;;5119522;28;20200;-79
2022/02/28 03:55:45;;;;;;;8.85;7.60;;;-0.90;99.90;;;;;;5118707;28;20207;-79
2022/02/28 03:58:12;;;;;;;12.13;9.60;;;-0.80;99.90;;;;;;5119532;28;20231;-79
2022/02/28 04:00:39;;;;;;;10.57;7.35;;;-0.80;99.90;;;;;;5118244;28;20203;-79
2022/02/28 04:03:07;;;;;;;8.45;6.90;;;-0.90;99.90;;;;;;5122741;27;20202;-79
2022/02/28 04:05:34;;;;;;;10.40;8.65;;;-0.80;99.90;;;;;;5139517;27;20199;-79
2022/02/28 04:08:00;;;;;;;10.30;9.23;;;-0.80;99.90;;;;;;5136441;27;20616;-78
2022/02/28 04:10:27;;;;;;;12.98;8.50;;;-0.70;99.90;;;;;;5118592;28;20210;-79
2022/02/28 04:12:54;;;;;;;9.77;7.75;;;-0.70;99.90;;;;;;5136140;27;20226;-79
2022/02/28 04:15:21;;;;;;;10.23;7.70;;;-0.70;99.90;;;;;;5121394;27;20607;-78
2022/02/28 04:17:47;;;;;;;12.07;9.10;;;-0.60;99.90;;;;;;5125242;27;20209;-79
2022/02/28 04:20:16;;;;;;;11.27;8.25;;;-0.60;99.90;;;;;;5135299;27;20257;-78
2022/02/28 04:22:42;;;;;;;10.73;7.28;;;-0.60;99.90;;;;;;5133885;27;20195;-78
2022/02/28 04:25:10;;;;;;;8.65;7.75;;;-0.60;99.90;;;;;;5123105;27;20207;-78
2022/02/28 04:27:37;;;;;;;12.50;8.15;;;-0.60;99.90;;;;;;5113181;28;20208;-78
2022/02/28 04:30:04;;;;;;;12.10;7.88;;;-0.60;99.90;;;;;;5113983;28;20594;-78
2022/02/28 04:32:31;;;;;;;7.82;6.75;;;-0.60;99.90;;;;;;5116347;27;20222;-78
2022/02/28 04:34:58;;;;;;;8.60;7.75;;;-0.60;99.90;;;;;;5113518;28;20208;-79
2022/02/28 04:37:26;;;;;;;10.95;9.15;;;-0.60;99.90;;;;;;5113541;27;20210;-79
2022/02/28 04:39:53;;;;;;;9.77;6.97;;;-0.60;99.90;;;;;;5114017;28;20224;-79
2022/02/28 04:42:21;;;;;;;9.35;8.07;;;-0.60;99.90;;;;;;5118063;28;20577;-78
2022/02/28 04:44:48;;;;;;;12.10;6.70;;;-0.60;99.90;;;;;;5113332;28;20207;-78
2022/02/28 04:47:15;;;;;;;10.15;6.47;;;-0.60;99.90;;;;;;5113202;28;20208;-78
2022/02/28 04:49:42;;;;;;;7.68;6.88;;;-0.60;99.90;;;;;;5113838;28;20709;-78
2022/02/28 04:52:08;;;;;;;9.65;8.60;;;-0.60;99.90;;;;;;5130641;28;20233;-78
2022/02/28 04:54:36;;;;;;;9.60;6.75;;;-0.60;99.90;;;;;;5140033;28;20214;-78
2022/02/28 04:57:03;;;;;;;9.40;7.18;;;-0.60;99.90;;;;;;5127905;28;20649;-78
2022/02/28 04:59:30;;;;;;;9.63;7.80;;;-0.70;99.90;;;;;;5114697;28;20247;-78
2022/02/28 05:01:57;;;;;;;13.38;9.27;;;-0.60;99.90;;;;;;5115233;28;20208;-78
2022/02/28 05:04:24;;;;;;;11.50;7.55;;;-0.80;99.90;;;;;;5121216;27;20210;-78
2022/02/28 05:06:51;;;;;;;7.68;6.88;;;-1.00;99.90;;;;;;5138499;27;20552;-78
2022/02/28 05:09:18;;;;;;;12.63;8.23;;;-1.00;99.90;;;;;;5137696;27;20591;-78
2022/02/28 05:11:46;;;;;;;12.68;10.10;;;-1.00;99.90;;;;;;5138429;27;20218;-79
2022/02/28 05:14:14;;;;;;;13.25;7.72;;;-1.00;99.90;;;;;;5137624;27;20209;-78
2022/02/28 05:16:41;;;;;;;9.80;8.32;;;-1.00;99.90;;;;;;5137595;27;20207;-78
2022/02/28 05:19:08;;;;;;;8.48;7.55;;;-1.00;99.90;;;;;;5136175;27;20227;-79
2022/02/28 05:21:35;;;;;;;10.25;7.57;;;-1.00;99.90;;;;;;5117425;28;20199;-79
2022/02/28 05:24:02;;;;;;;10.20;8.15;;;-1.00;99.90;;;;;;5117498;28;20203;-78
2022/02/28 05:26:29;;;;;;;11.88;8.57;;;-0.90;99.90;;;;;;5116668;28;20219;-78
2022/02/28 05:28:57;;;;;;;8.52;7.50;;;-0.90;99.90;;;;;;5117009;28;20226;-77
2022/02/28 05:31:24;;;;;;;10.05;8.48;;;-0.90;99.90;;;;;;5117049;28;20203;-78
2022/02/28 05:33:50;;;;;;;11.13;7.07;;;-0.90;99.90;;;;;;5117498;28;20207;-78
2022/02/28 05:36:17;;;;;;;11.35;8.13;;;-0.90;99.90;;;;;;5117413;27;20214;-78
2022/02/28 05:38:44;;;;;;;11.88;9.27;;;-0.90;99.90;;;;;;5137238;27;20226;-78
2022/02/28 05:41:11;;;;;;;11.60;8.55;;;-0.90;99.90;;;;;;5137172;27;20211;-78
2022/02/28 05:43:37;;;;;;;9.40;8.40;;;-0.90;99.90;;;;;;5137014;27;20191;-78
2022/02/28 05:46:06;;;;;;;12.80;9.40;;;-0.90;99.90;;;;;;5137098;27;20214;-78
2022/02/28 05:48:32;;;;;;;11.93;9.25;;;-0.90;99.90;;;;;;5132460;27;20219;-78
2022/02/28 05:50:59;;;;;;;8.60;7.72;;;-1.00;99.90;;;;;;5136771;27;20206;-79
2022/02/28 05:53:26;;;;;;;21.95;10.88;;;-1.00;99.90;;;;;;5119259;27;20219;-78
2022/02/28 05:55:53;;;;;;;12.27;9.20;;;-1.10;99.90;;;;;;5116709;28;20203;-78
2022/02/28 05:58:19;;;;;;;11.70;9.50;;;-1.10;99.90;;;;;;5127916;27;20199;-78
2022/02/28 06:00:46;;;;;;;13.40;9.38;;;-1.00;99.90;;;;;;5136382;27;20206;-78
2022/02/28 06:03:14;;;;;;;13.45;10.55;;;-1.00;99.90;;;;;;5120033;27;20192;-78
2022/02/28 06:05:41;;;;;;;14.23;10.73;;;-1.00;99.90;;;;;;5116145;28;20697;-79
2022/02/28 06:08:08;;;;;;;13.45;10.25;;;-1.00;99.90;;;;;;5133231;27;20687;-78
2022/02/28 06:10:35;;;;;;;17.65;11.13;;;-1.00;99.90;;;;;;5136469;27;20199;-79
2022/02/28 06:13:01;;;;;;;12.80;9.10;;;-1.00;99.90;;;;;;5129818;27;20222;-78
2022/02/28 06:15:28;;;;;;;10.50;9.48;;;-1.00;99.90;;;;;;5116123;28;20196;-79
2022/02/28 06:17:55;;;;;;;12.75;11.10;;;-0.90;99.90;;;;;;5116465;28;20207;-78
2022/02/28 06:20:23;;;;;;;10.52;8.93;;;-0.90;99.90;;;;;;5115707;27;20231;-78
2022/02/28 06:22:50;;;;;;;11.55;9.82;;;-0.90;99.90;;;;;;5120702;27;20195;-78
2022/02/28 06:25:17;;;;;;;11.30;8.80;;;-0.80;99.90;;;;;;5135842;27;20267;-78
2022/02/28 06:27:44;;;;;;;12.05;9.75;;;-0.80;99.90;;;;;;5116235;28;20238;-78
2022/02/28 06:30:12;;;;;;;12.45;10.43;;;-1.00;99.90;;;;;;5115690;28;20310;-79
2022/02/28 06:32:38;;;;;;;12.75;9.82;;;-1.10;99.90;;;;;;5136404;27;20660;-78
2022/02/28 06:35:06;;;;;;;12.45;9.57;;;-1.00;99.90;;;;;;5140088;27;20207;-79
2022/02/28 06:37:34;;;;;;;9.60;8.60;;;-1.00;99.90;;;;;;5120832;27;20203;-79
2022/02/28 06:40:01;;;;;;;11.77;9.23;;;-0.90;99.90;;;;;;5117100;28;20595;-79
2022/02/28 06:42:28;;;;;;;13.35;9.20;;;-0.90;99.90;;;;;;5135765;27;20202;-79
2022/02/28 06:44:54;;;;;;;11.95;9.30;;;-0.80;99.90;;;;;;5137682;27;20332;-79
2022/02/28 06:47:21;;;;;;;14.02;11.30;;;-0.70;99.90;;;;;;5137600;27;20195;-79
2022/02/28 06:49:48;;;;;;;9.25;8.45;;;-0.60;99.90;;;;;;5137786;27;20229;-79
2022/02/28 06:52:15;;;;;;;11.70;10.50;;;-0.60;99.90;;;;;;5124331;27;20211;-79
2022/02/28 06:54:43;;;;;;;11.40;9.43;;;-0.50;99.90;;;;;;5117668;27;20218;-79
2022/02/28 06:57:11;;;;;;;11.10;9.45;;;-0.50;99.90;;;;;;5125748;27;20198;-79
2022/02/28 06:59:38;;;;;;;13.85;10.52;;;-0.40;99.90;;;;;;5136955;27;20223;-79
2022/02/28 07:02:05;;;;;;;14.77;11.52;;;-0.40;99.90;;;;;;5131619;27;20195;-79
2022/02/28 07:04:32;;;;;;;14.38;10.40;;;-0.40;99.90;;;;;;5138349;27;20628;-80
2022/02/28 07:06:59;;;;;;;14.38;11.15;;;-0.40;99.90;;;;;;5123748;27;20199;-80
2022/02/28 07:09:26;;;;;;;14.43;11.38;;;-0.30;99.90;;;;;;5120658;28;20227;-77
2022/02/28 07:11:54;;;;;;;18.77;13.80;;;-0.30;99.90;;;;;;5114576;28;20206;-78
2022/02/28 07:14:21;;;;;;;17.58;14.02;;;-0.20;99.90;;;;;;5125760;27;20204;-80
2022/02/28 07:16:48;;;;;;;25.92;15.23;;;-0.10;99.90;;;;;;5143625;27;20579;-81
2022/02/28 07:19:15;;;;;;;22.40;15.38;;;0.10;99.90;;;;;;5141214;27;20231;-81
2022/02/28 07:21:42;;;;;;;21.10;16.08;;;0.20;99.90;;;;;;5140906;28;20576;-81
2022/02/28 07:24:09;;;;;;;16.52;12.43;;;0.30;99.90;;;;;;5138052;27;20195;-81
2022/02/28 07:26:36;;;;;;;13.55;11.43;;;0.40;99.90;;;;;;5118318;28;20204;-79
2022/02/28 07:29:17;;;;;;;14.50;11.68;;;0.50;99.90;;;;;;5117299;28;20220;-80
2022/02/28 07:31:44;;;;;;;13.25;11.27;;;0.70;99.90;;;;;;5117912;28;20673;-80
2022/02/28 07:34:10;;;;;;;14.75;10.07;;;0.80;99.90;;;;;;5117086;28;20249;-80
2022/02/28 07:36:37;;;;;;;14.57;10.32;;;1.00;99.90;;;;;;5118164;28;20235;-80
2022/02/28 07:39:04;;;;;;;16.95;10.95;;;1.10;99.90;;;;;;5118470;28;20230;-80
2022/02/28 07:41:31;;;;;;;12.95;9.32;;;1.20;99.90;;;;;;5118375;28;20200;-80
2022/02/28 07:43:58;;;;;;;15.38;12.48;;;1.40;99.90;;;;;;5115164;28;20211;-80
2022/02/28 07:46:26;;;;;;;14.77;12.57;;;1.50;99.90;;;;;;5117894;28;20205;-80
2022/02/28 07:48:53;;;;;;;13.93;11.50;;;1.50;99.90;;;;;;5116334;28;20216;-79
2022/02/28 07:51:20;;;;;;;13.07;10.30;;;1.50;99.90;;;;;;5119401;28;20211;-79
2022/02/28 07:53:46;;;;;;;12.27;10.88;;;1.60;99.90;;;;;;5116596;28;20226;-80
2022/02/28 07:56:13;;;;;;;15.32;11.75;;;1.60;99.90;;;;;;5116072;28;20200;-80
2022/02/28 07:58:40;;;;;;;11.57;9.73;;;1.70;99.90;;;;;;5120616;28;20234;-80
2022/02/28 08:01:07;;;;;;;16.10;10.52;;;1.80;99.90;;;;;;5119150;28;20611;-80
2022/02/28 08:03:42;;;;;;;15.00;13.40;;;1.90;99.70;;;;;;5115464;28;20689;-80
2022/02/28 08:06:09;;;;;;;12.32;9.63;;;1.90;99.40;;;;;;5121681;28;20188;-80
2022/02/28 08:08:36;;;;;;;13.05;9.73;;;2.00;98.70;;;;;;5116086;28;20587;-78
2022/02/28 08:11:03;;;;;;;13.85;12.40;;;2.10;98.40;;;;;;5118889;28;20216;-80
2022/02/28 08:13:32;;;;;;;10.88;9.75;;;2.20;98.40;;;;;;5113070;28;20216;-78
2022/02/28 08:16:01;;;;;;;14.00;10.57;;;2.30;98.60;;;;;;5112430;28;20206;-77
2022/02/28 08:18:27;;;;;;;11.90;9.87;;;2.40;98.40;;;;;;5072888;28;1113245;-78
2022/02/28 08:20:55;;;;;;;15.77;11.60;;;2.40;98.40;;;;;;5112564;28;20446;-78
2022/02/28 08:23:22;;;;;;;13.60;9.80;;;2.50;98.30;;;;;;5112690;28;20213;-76
2022/02/28 08:25:49;;;;;;;11.68;10.05;;;2.60;98.10;;;;;;5122064;27;20210;-78
2022/02/28 08:28:16;;;;;;;12.07;10.75;;;2.70;97.90;;;;;;5122384;27;20552;-78
2022/02/28 08:30:43;;;;;;;13.68;11.25;;;2.80;98.10;;;;;;5138815;27;20200;-77
2022/02/28 08:33:10;;;;;;;14.90;11.25;;;2.90;98.10;;;;;;5141365;27;20229;-79
2022/02/28 08:35:37;;;;;;;12.85;10.10;;;3.10;97.90;;;;;;5120121;27;20207;-79
2022/02/28 08:38:05;;;;;;;12.50;9.35;;;3.30;97.50;;;;;;5113203;28;20236;-79
2022/02/28 08:40:32;;;;;;;13.88;9.80;;;3.40;97.20;;;;;;5116569;28;20206;-79
2022/02/28 08:42:59;;;;;;;11.70;10.25;;;3.50;96.50;;;;;;5125293;27;20193;-78
2022/02/28 08:45:26;;;;;;;12.52;10.10;;;3.30;95.40;;;;;;5144092;27;20208;-80
2022/02/28 08:47:53;;;;;;;12.27;10.93;;;3.30;95.40;;;;;;5135974;27;20214;-79
2022/02/28 08:50:19;;;;;;;11.55;10.35;;;3.10;94.60;;;;;;5133614;27;20224;-79
2022/02/28 08:52:47;;;;;;;10.82;9.93;;;3.10;94.70;;;;;;5133449;27;20218;-79
2022/02/28 08:55:15;;;;;;;11.40;10.20;;;3.20;94.80;;;;;;5142602;27;20215;-78
2022/02/28 08:57:42;;;;;;;7.85;7.00;;;3.40;95.00;;;;;;5143678;28;20207;-80
2022/02/28 09:00:11;;;;;;;9.45;8.13;;;3.60;94.60;;;;;;5151062;28;20233;-79
2022/02/28 09:02:40;;;;;;;11.48;10.40;;;3.80;93.80;;;;;;5137620;28;20206;-81
2022/02/28 09:05:08;;;;;;;10.70;7.97;;;4.00;93.40;;;;;;5135540;28;20624;-81
2022/02/28 09:07:35;;;;;;;11.30;10.02;;;4.10;92.80;;;;;;5133858;28;20199;-80
2022/02/28 09:10:03;;;;;;;12.13;9.85;;;4.20;92.20;;;;;;5134353;28;20253;-81
2022/02/28 09:12:31;;;;;;;11.13;9.70;;;4.30;90.90;;;;;;5124564;28;20206;-80
2022/02/28 09:14:58;;;;;;;11.52;8.77;;;4.40;90.50;;;;;;5114154;28;20717;-81
2022/02/28 09:17:26;;;;;;;9.75;8.75;;;4.40;90.80;;;;;;5133685;28;20202;-80
2022/02/28 09:19:52;;;;;;;13.13;9.45;;;4.50;91.10;;;;;;5139044;28;20234;-79
2022/02/28 09:22:19;;;;;;;9.80;8.80;;;4.60;91.20;;;;;;5133877;28;20675;-80
2022/02/28 09:24:46;;;;;;;9.30;8.40;;;4.70;90.80;;;;;;5134893;28;20199;-80
2022/02/28 09:27:13;;;;;;;10.80;9.60;;;4.80;90.80;;;;;;5133788;28;20213;-80
2022/02/28 09:29:41;;;;;;;11.13;9.40;;;4.90;90.40;;;;;;5118743;28;20219;-80
2022/02/28 09:32:09;;;;;;;10.18;8.40;;;4.90;90.70;;;;;;5113108;28;20200;-80
2022/02/28 09:34:35;;;;;;;9.63;8.63;;;4.90;90.90;;;;;;5122078;28;20226;-79
2022/02/28 09:37:03;;;;;;;10.45;9.40;;;5.00;90.60;;;;;;5114168;28;20561;-79
2022/02/28 09:39:30;;;;;;;11.85;8.98;;;5.10;90.40;;;;;;5113099;28;20224;-80
2022/02/28 09:41:58;;;;;;;9.55;8.63;;;5.10;90.70;;;;;;5113582;28;20210;-80
2022/02/28 09:44:26;;;;;;;13.13;9.73;;;5.20;91.00;;;;;;5113469;28;20680;-79
2022/02/28 09:46:55;;;;;;;11.75;9.48;;;5.40;90.50;;;;;;5113759;28;20211;-79
2022/02/28 09:49:21;;;;;;;8.43;7.60;;;5.50;90.00;;;;;;5133879;27;20272;-79
2022/02/28 09:51:48;;;;;;;11.52;8.93;;;5.70;88.30;;;;;;5138826;27;20210;-79
2022/02/28 09:54:15;;;;;;;9.63;8.10;;;5.70;86.30;;;;;;5137852;27;20559;-79
2022/02/28 09:56:42;;;;;;;11.40;10.15;;;5.80;87.90;;;;;;5137601;27;20201;-80
2022/02/28 09:59:09;;;;;;;12.57;9.02;;;5.80;87.60;;;;;;5137967;27;20696;-79
2022/02/28 10:01:36;;;;;;;8.63;7.85;;;5.90;86.70;;;;;;5135129;27;20567;-80
2022/02/28 10:04:04;;;;;;;9.18;8.15;;;5.90;87.10;;;;;;5122344;28;20199;-79
2022/02/28 10:06:31;;;;;;;10.50;9.48;;;6.00;86.40;;;;;;5120374;27;20225;-79
2022/02/28 10:09:03;;;;;;;8.77;7.88;;;6.20;84.20;;;;;;5119998;28;20231;-80
2022/02/28 10:11:32;;;;;;;11.68;8.82;;;6.30;83.30;;;;;;5119074;28;20665;-79
2022/02/28 10:14:01;;;;;;;9.32;7.80;;;6.40;83.90;;;;;;5117298;28;20311;-79
2022/02/28 10:16:31;;;;;;;8.75;7.93;;;6.40;82.30;;;;;;5119253;27;20215;-79
2022/02/28 10:19:13;;;;;;;8.40;7.60;;;6.50;82.90;;;;;;5126076;22;20235;-86
2022/02/28 10:21:43;;;;;;;12.68;9.20;;;6.60;82.60;;;;;;5080118;28;20242;-84
2022/02/28 10:24:11;;;;;;;9.07;8.00;;;6.70;81.40;;;;;;5078551;28;20185;-82
2022/02/28 10:26:40;;;;;;;11.07;10.07;;;6.80;80.30;;;;;;5074981;28;20204;-81
2022/02/28 10:29:09;;;;;;;10.38;9.48;;;6.90;79.70;;;;;;5078082;28;20223;-81
2022/02/28 10:31:38;;;;;;;11.60;9.32;;;6.90;79.20;;;;;;5076251;28;20201;-82
2022/02/28 10:34:14;;;;;;;10.07;8.43;;;7.10;78.20;;;;;;5078173;28;20599;-81
2022/02/28 10:36:44;;;;;;;10.88;9.05;;;7.20;76.70;;;;;;5078663;28;20681;-81
2022/02/28 10:39:11;;;;;;;10.90;9.80;;;7.20;76.40;;;;;;5078693;28;20229;-81
2022/02/28 10:41:42;;;;;;;9.95;9.10;;;7.30;76.20;;;;;;5078812;28;20205;-82
2022/02/28 10:44:11;;;;;;;10.65;9.65;;;7.30;76.30;;;;;;5079344;28;20201;-82
2022/02/28 10:46:42;;;;;;;10.02;8.63;;;7.50;77.10;;;;;;5079180;28;20245;-82
2022/02/28 10:49:15;;;;;;;9.05;8.15;;;7.60;76.50;;;;;;5078331;28;20758;-81
2022/02/28 10:51:48;;;;;;;9.55;8.27;;;7.80;74.20;;;;;;5078301;28;20205;-82
2022/02/28 10:54:18;;;;;;;9.60;8.65;;;7.90;74.10;;;;;;5077948;28;20244;-81
2022/02/28 10:56:47;;;;;;;9.93;8.27;;;8.00;72.80;;;;;;5078497;28;20205;-82
2022/02/28 10:59:14;;;;;;;10.55;8.20;;;8.10;73.20;;;;;;5076222;28;20225;-82
2022/02/28 11:01:42;;;;;;;10.02;9.02;;;8.30;73.20;;;;;;5077265;28;20649;-82
2022/02/28 11:04:09;;;;;;;11.25;9.93;;;8.40;72.60;;;;;;5078032;28;20267;-82
2022/02/28 11:06:39;;;;;;;11.02;10.00;;;8.60;72.60;;;;;;5077873;28;20207;-82
2022/02/28 11:09:06;;;;;;;10.82;9.38;;;8.90;72.10;;;;;;5077698;28;20709;-82
2022/02/28 11:11:33;;;;;;;9.32;8.38;;;9.30;71.30;;;;;;5077267;28;20583;-82
2022/02/28 11:14:01;;;;;;;10.20;9.13;;;9.90;70.80;;;;;;5077691;28;20304;-83
2022/02/28 11:16:30;;;;;;;13.17;9.53;;;10.60;65.90;;;;;;5077207;28;20973;-81
2022/02/28 11:18:57;;;;;;;10.67;9.67;;;11.00;63.70;;;;;;5082055;28;20480;-82
2022/02/28 11:21:24;;;;;;;11.20;10.07;;;11.20;64.70;;;;;;5097428;28;20451;-82
2022/02/28 11:23:52;;;;;;;11.70;10.60;;;11.70;62.80;;;;;;5098019;28;20498;-82
2022/02/28 11:26:19;;;;;;;11.70;10.60;;;12.40;60.70;;;;;;5098234;28;20458;-82
2022/02/28 11:28:47;;;;;;;12.03;10.90;;;13.30;59.30;;;;;;5097688;28;20451;-82
2022/02/28 11:31:15;;;;;;;11.07;10.07;;;14.20;57.40;;;;;;5097817;28;20967;-82
2022/02/28 11:33:52;;;;;;;12.07;10.80;;;14.90;56.30;;;;;;5098241;28;20475;-81
2022/02/28 11:36:19;;;;;;;10.63;9.77;;;15.40;54.10;;;;;;5097688;28;20449;-82
2022/02/28 11:38:46;;;;;;;10.80;9.70;;;16.00;52.90;;;;;;5098387;28;20555;-82
2022/02/28 11:41:19;;;;;;;11.97;10.77;;;16.20;50.00;;;;;;5098811;28;20447;-82
2022/02/28 11:43:48;;;;;;;11.17;10.07;;;16.90;50.30;;;;;;5099322;28;20548;-82
2022/02/28 11:46:18;;;;;;;10.50;9.50;;;17.50;46.80;;;;;;5098463;28;20443;-82
2022/02/28 11:48:49;;;;;;;10.63;9.73;;;17.90;44.50;;;;;;5097654;28;20513;-82
2022/02/28 11:51:30;;;;;;;10.90;9.90;;;18.00;42.80;;;;;;5098248;28;20457;-83
2022/02/28 11:53:59;;;;;;;11.00;10.00;;;18.40;42.70;;;;;;5097659;28;20500;-81
2022/02/28 11:56:55;;;;;;;11.17;10.07;;;18.40;40.80;;;;;;5097804;28;20457;-82
2022/02/28 11:59:43;;;;;;;10.80;9.80;;;18.70;41.00;;;;;;5097331;28;20511;-81
2022/02/28 12:02:20;;;;;;;10.83;9.80;;;18.80;40.80;;;;;;5090685;28;20472;-82
2022/02/28 12:04:46;;;;;;;10.83;9.80;;;19.30;39.40;;;;;;5097090;28;20485;-82
2022/02/28 12:07:30;;;;;;;11.20;10.20;;;19.90;38.90;;;;;;5097472;28;20451;-82
2022/02/28 12:10:09;;;;;;;11.03;9.67;;;19.50;37.30;;;;;;5096416;28;20534;-82
2022/02/28 12:12:38;;;;;;;10.90;9.90;;;19.30;37.80;;;;;;5097660;28;20452;-82
2022/02/28 12:15:23;;;;;;;9.87;9.03;;;19.60;36.80;;;;;;5097150;28;20449;-82
2022/02/28 12:18:04;;;;;;;11.50;10.30;;;19.40;37.00;;;;;;5097730;28;20430;-82
2022/02/28 12:20:34;;;;;;;10.93;9.80;;;19.80;37.00;;;;;;5096309;28;20474;-82
2022/02/28 12:23:25;;;;;;;11.77;10.67;;;20.30;36.80;;;;;;5097552;28;20441;-81
2022/02/28 12:26:19;;;;;;;11.70;10.70;;;20.20;35.80;;;;;;5105253;28;20491;-82
2022/02/28 12:28:54;;;;;;;11.80;10.57;;;20.50;35.80;;;;;;5101847;28;20481;-82
2022/02/28 12:31:33;;;;;;;10.77;9.83;;;21.10;35.60;;;;;;5096616;28;20506;-82
2022/02/28 12:34:11;;;;;;;11.60;10.50;;;21.60;34.60;;;;;;5097406;28;20450;-82
2022/02/28 12:36:40;;;;;;;11.47;10.37;;;21.70;34.10;;;;;;5095868;28;20450;-81
2022/02/28 12:39:12;;;;;;;12.33;10.60;;;21.60;33.40;;;;;;5096963;28;20467;-82
2022/02/28 12:41:41;;;;;;;11.30;10.20;;;21.50;33.00;;;;;;5097643;28;20817;-81
2022/02/28 12:44:12;;;;;;;11.33;10.13;;;21.60;32.80;;;;;;5096978;28;20481;-81
2022/02/28 12:46:42;;;;;;;11.77;10.70;;;22.00;33.40;;;;;;5097074;28;20455;-81